sensor_id;sensor_type;location;lat;lon;timestamp;P1;durP1;ratioP1;P2;durP2;ratioP2
48853;SDS011;34673;52.808;17.856;2023-12-20T00:01:07;17.58;;;11.07;;
48853;SDS011;34673;52.808;17.856;2023-12-20T00:03:34;26.65;;;15.30;;
48853;SDS011;34673;52.808;17.856;2023-12-20T00:06:08;27.77;;;16.15;;
48853;SDS011;34673;52.808;17.856;2023-12-20T00:08:36;17.23;;;10.32;;
48853;SDS011;34673;52.808;17.856;2023-12-20T00:11:04;14.48;;;8.93;;
48853;SDS011;34673;52.808;17.856;2023-12-20T00:13:31;13.13;;;8.80;;
48853;SDS011;34673;52.808;17.856;2023-12-20T00:15:58;13.43;;;8.60;;
48853;SDS011;34673;52.808;17.856;2023-12-20T00:18:25;13.50;;;9.10;;
48853;SDS011;34673;52.808;17.856;2023-12-20T00:20:52;13.95;;;9.20;;
48853;SDS011;34673;52.808;17.856;2023-12-20T00:23:20;16.08;;;10.43;;
48853;SDS011;34673;52.808;17.856;2023-12-20T00:25:47;22.25;;;13.88;;
48853;SDS011;34673;52.808;17.856;2023-12-20T00:28:14;15.25;;;8.98;;
48853;SDS011;34673;52.808;17.856;2023-12-20T00:30:41;14.40;;;8.65;;
48853;SDS011;34673;52.808;17.856;2023-12-20T00:33:09;13.98;;;8.80;;
48853;SDS011;34673;52.808;17.856;2023-12-20T00:35:36;14.55;;;9.13;;
48853;SDS011;34673;52.808;17.856;2023-12-20T00:38:03;20.00;;;10.98;;
48853;SDS011;34673;52.808;17.856;2023-12-20T00:40:31;15.85;;;9.63;;
48853;SDS011;34673;52.808;17.856;2023-12-20T00:42:59;13.27;;;8.20;;
48853;SDS011;34673;52.808;17.856;2023-12-20T00:45:27;13.82;;;8.82;;
48853;SDS011;34673;52.808;17.856;2023-12-20T00:47:54;19.35;;;10.50;;
48853;SDS011;34673;52.808;17.856;2023-12-20T00:50:21;21.40;;;13.48;;
48853;SDS011;34673;52.808;17.856;2023-12-20T00:52:51;32.63;;;14.32;;
48853;SDS011;34673;52.808;17.856;2023-12-20T00:55:19;18.27;;;10.23;;
48853;SDS011;34673;52.808;17.856;2023-12-20T00:57:46;16.08;;;10.25;;
48853;SDS011;34673;52.808;17.856;2023-12-20T01:00:14;11.40;;;7.43;;
48853;SDS011;34673;52.808;17.856;2023-12-20T01:02:42;11.27;;;7.93;;
48853;SDS011;34673;52.808;17.856;2023-12-20T01:05:09;11.98;;;8.10;;
48853;SDS011;34673;52.808;17.856;2023-12-20T01:07:36;9.95;;;7.20;;
48853;SDS011;34673;52.808;17.856;2023-12-20T01:10:04;12.57;;;8.75;;
48853;SDS011;34673;52.808;17.856;2023-12-20T01:12:31;11.10;;;7.47;;
48853;SDS011;34673;52.808;17.856;2023-12-20T01:14:58;12.98;;;9.20;;
48853;SDS011;34673;52.808;17.856;2023-12-20T01:17:25;14.40;;;9.68;;
48853;SDS011;34673;52.808;17.856;2023-12-20T01:19:52;19.73;;;12.65;;
48853;SDS011;34673;52.808;17.856;2023-12-20T01:22:20;18.67;;;12.45;;
48853;SDS011;34673;52.808;17.856;2023-12-20T01:24:47;14.88;;;9.20;;
48853;SDS011;34673;52.808;17.856;2023-12-20T01:27:14;12.15;;;7.80;;
48853;SDS011;34673;52.808;17.856;2023-12-20T01:29:41;10.38;;;7.43;;
48853;SDS011;34673;52.808;17.856;2023-12-20T01:32:09;14.95;;;9.27;;
48853;SDS011;34673;52.808;17.856;2023-12-20T01:34:36;12.48;;;8.50;;
48853;SDS011;34673;52.808;17.856;2023-12-20T01:37:03;14.68;;;8.85;;
48853;SDS011;34673;52.808;17.856;2023-12-20T01:39:31;13.18;;;8.77;;
48853;SDS011;34673;52.808;17.856;2023-12-20T01:41:58;12.15;;;8.52;;
48853;SDS011;34673;52.808;17.856;2023-12-20T01:44:25;10.85;;;7.97;;
48853;SDS011;34673;52.808;17.856;2023-12-20T01:46:53;13.65;;;8.80;;
48853;SDS011;34673;52.808;17.856;2023-12-20T01:49:21;10.55;;;7.68;;
48853;SDS011;34673;52.808;17.856;2023-12-20T01:51:49;13.43;;;8.25;;
48853;SDS011;34673;52.808;17.856;2023-12-20T01:54:17;15.85;;;10.38;;
48853;SDS011;34673;52.808;17.856;2023-12-20T01:56:46;25.40;;;15.85;;
48853;SDS011;34673;52.808;17.856;2023-12-20T01:59:13;13.15;;;9.32;;
48853;SDS011;34673;52.808;17.856;2023-12-20T02:01:40;14.93;;;8.88;;
48853;SDS011;34673;52.808;17.856;2023-12-20T02:04:08;14.20;;;8.82;;
48853;SDS011;34673;52.808;17.856;2023-12-20T02:06:35;13.27;;;7.65;;
48853;SDS011;34673;52.808;17.856;2023-12-20T02:09:06;11.57;;;7.80;;
48853;SDS011;34673;52.808;17.856;2023-12-20T02:11:34;10.05;;;6.78;;
48853;SDS011;34673;52.808;17.856;2023-12-20T02:14:02;12.75;;;8.25;;
48853;SDS011;34673;52.808;17.856;2023-12-20T02:16:30;10.75;;;7.78;;
48853;SDS011;34673;52.808;17.856;2023-12-20T02:18:57;12.73;;;8.18;;
48853;SDS011;34673;52.808;17.856;2023-12-20T02:21:25;8.38;;;6.47;;
48853;SDS011;34673;52.808;17.856;2023-12-20T02:23:52;10.48;;;7.63;;
48853;SDS011;34673;52.808;17.856;2023-12-20T02:26:19;18.80;;;11.93;;
48853;SDS011;34673;52.808;17.856;2023-12-20T02:28:46;14.77;;;9.27;;
48853;SDS011;34673;52.808;17.856;2023-12-20T02:31:14;15.65;;;9.63;;
48853;SDS011;34673;52.808;17.856;2023-12-20T02:33:41;11.23;;;7.35;;
48853;SDS011;34673;52.808;17.856;2023-12-20T02:36:09;12.00;;;7.63;;
48853;SDS011;34673;52.808;17.856;2023-12-20T02:38:36;14.05;;;8.27;;
48853;SDS011;34673;52.808;17.856;2023-12-20T02:41:03;11.23;;;7.18;;
48853;SDS011;34673;52.808;17.856;2023-12-20T02:43:30;8.57;;;5.97;;
48853;SDS011;34673;52.808;17.856;2023-12-20T02:45:57;9.85;;;6.75;;
48853;SDS011;34673;52.808;17.856;2023-12-20T02:48:24;10.20;;;6.40;;
48853;SDS011;34673;52.808;17.856;2023-12-20T02:50:51;11.13;;;6.38;;
48853;SDS011;34673;52.808;17.856;2023-12-20T02:53:19;11.25;;;6.97;;
48853;SDS011;34673;52.808;17.856;2023-12-20T02:55:46;11.65;;;7.40;;
48853;SDS011;34673;52.808;17.856;2023-12-20T02:58:13;7.95;;;6.00;;
48853;SDS011;34673;52.808;17.856;2023-12-20T03:00:41;12.75;;;8.43;;
48853;SDS011;34673;52.808;17.856;2023-12-20T03:03:08;10.43;;;6.32;;
48853;SDS011;34673;52.808;17.856;2023-12-20T03:05:35;8.23;;;5.70;;
48853;SDS011;34673;52.808;17.856;2023-12-20T03:08:02;8.02;;;5.57;;
48853;SDS011;34673;52.808;17.856;2023-12-20T03:10:29;11.85;;;6.55;;
48853;SDS011;34673;52.808;17.856;2023-12-20T03:12:57;7.53;;;5.30;;
48853;SDS011;34673;52.808;17.856;2023-12-20T03:15:24;7.72;;;5.30;;
48853;SDS011;34673;52.808;17.856;2023-12-20T03:17:51;8.02;;;5.63;;
48853;SDS011;34673;52.808;17.856;2023-12-20T03:20:18;11.00;;;6.03;;
48853;SDS011;34673;52.808;17.856;2023-12-20T03:22:46;11.50;;;8.05;;
48853;SDS011;34673;52.808;17.856;2023-12-20T03:25:13;8.02;;;5.70;;
48853;SDS011;34673;52.808;17.856;2023-12-20T03:27:40;7.95;;;5.97;;
48853;SDS011;34673;52.808;17.856;2023-12-20T03:30:07;9.75;;;6.30;;
48853;SDS011;34673;52.808;17.856;2023-12-20T03:32:36;7.13;;;4.93;;
48853;SDS011;34673;52.808;17.856;2023-12-20T03:35:05;10.88;;;7.05;;
48853;SDS011;34673;52.808;17.856;2023-12-20T03:37:32;8.27;;;5.35;;
48853;SDS011;34673;52.808;17.856;2023-12-20T03:39:59;9.73;;;5.80;;
48853;SDS011;34673;52.808;17.856;2023-12-20T03:42:27;8.27;;;5.32;;
48853;SDS011;34673;52.808;17.856;2023-12-20T03:44:55;8.63;;;5.68;;
48853;SDS011;34673;52.808;17.856;2023-12-20T03:47:22;8.57;;;5.57;;
48853;SDS011;34673;52.808;17.856;2023-12-20T03:49:49;9.75;;;6.30;;
48853;SDS011;34673;52.808;17.856;2023-12-20T03:52:16;12.55;;;7.45;;
48853;SDS011;34673;52.808;17.856;2023-12-20T03:54:44;11.82;;;7.38;;
48853;SDS011;34673;52.808;17.856;2023-12-20T03:57:11;7.82;;;4.88;;
48853;SDS011;34673;52.808;17.856;2023-12-20T03:59:38;8.98;;;5.65;;
48853;SDS011;34673;52.808;17.856;2023-12-20T04:02:05;9.85;;;5.82;;
48853;SDS011;34673;52.808;17.856;2023-12-20T04:04:33;7.60;;;5.60;;
48853;SDS011;34673;52.808;17.856;2023-12-20T04:07:00;8.02;;;5.30;;
48853;SDS011;34673;52.808;17.856;2023-12-20T04:09:28;9.93;;;5.95;;
48853;SDS011;34673;52.808;17.856;2023-12-20T04:11:55;9.52;;;5.88;;
48853;SDS011;34673;52.808;17.856;2023-12-20T04:14:22;9.40;;;5.82;;
48853;SDS011;34673;52.808;17.856;2023-12-20T04:16:49;12.18;;;7.68;;
48853;SDS011;34673;52.808;17.856;2023-12-20T04:19:16;17.75;;;10.32;;
48853;SDS011;34673;52.808;17.856;2023-12-20T04:21:44;8.35;;;5.70;;
48853;SDS011;34673;52.808;17.856;2023-12-20T04:24:11;7.88;;;5.88;;
48853;SDS011;34673;52.808;17.856;2023-12-20T04:26:38;8.75;;;5.40;;
48853;SDS011;34673;52.808;17.856;2023-12-20T04:29:05;9.48;;;5.22;;
48853;SDS011;34673;52.808;17.856;2023-12-20T04:31:32;10.38;;;6.55;;
48853;SDS011;34673;52.808;17.856;2023-12-20T04:34:00;12.27;;;7.20;;
48853;SDS011;34673;52.808;17.856;2023-12-20T04:36:27;8.57;;;5.90;;
48853;SDS011;34673;52.808;17.856;2023-12-20T04:38:56;10.13;;;6.95;;
48853;SDS011;34673;52.808;17.856;2023-12-20T04:41:24;9.02;;;6.40;;
48853;SDS011;34673;52.808;17.856;2023-12-20T04:43:51;8.98;;;5.95;;
48853;SDS011;34673;52.808;17.856;2023-12-20T04:46:18;8.70;;;5.68;;
48853;SDS011;34673;52.808;17.856;2023-12-20T04:48:45;12.48;;;6.95;;
48853;SDS011;34673;52.808;17.856;2023-12-20T04:51:13;8.43;;;5.93;;
48853;SDS011;34673;52.808;17.856;2023-12-20T04:53:40;14.60;;;7.95;;
48853;SDS011;34673;52.808;17.856;2023-12-20T04:56:07;7.43;;;5.63;;
48853;SDS011;34673;52.808;17.856;2023-12-20T04:58:34;10.25;;;7.00;;
48853;SDS011;34673;52.808;17.856;2023-12-20T05:01:01;10.18;;;6.43;;
48853;SDS011;34673;52.808;17.856;2023-12-20T05:03:29;14.05;;;8.63;;
48853;SDS011;34673;52.808;17.856;2023-12-20T05:05:57;10.13;;;6.40;;
48853;SDS011;34673;52.808;17.856;2023-12-20T05:08:24;12.15;;;7.72;;
48853;SDS011;34673;52.808;17.856;2023-12-20T05:10:53;10.05;;;7.15;;
48853;SDS011;34673;52.808;17.856;2023-12-20T05:13:21;16.88;;;9.60;;
48853;SDS011;34673;52.808;17.856;2023-12-20T05:15:52;11.27;;;7.95;;
48853;SDS011;34673;52.808;17.856;2023-12-20T05:18:20;10.07;;;6.95;;
48853;SDS011;34673;52.808;17.856;2023-12-20T05:20:47;9.68;;;7.63;;
48853;SDS011;34673;52.808;17.856;2023-12-20T05:23:15;14.60;;;10.20;;
48853;SDS011;34673;52.808;17.856;2023-12-20T05:25:42;18.92;;;10.00;;
48853;SDS011;34673;52.808;17.856;2023-12-20T05:28:09;16.45;;;9.52;;
48853;SDS011;34673;52.808;17.856;2023-12-20T05:30:36;11.30;;;7.40;;
48853;SDS011;34673;52.808;17.856;2023-12-20T05:33:04;8.57;;;6.53;;
48853;SDS011;34673;52.808;17.856;2023-12-20T05:35:31;9.07;;;6.85;;
48853;SDS011;34673;52.808;17.856;2023-12-20T05:37:58;10.05;;;6.90;;
48853;SDS011;34673;52.808;17.856;2023-12-20T05:40:25;9.93;;;6.28;;
48853;SDS011;34673;52.808;17.856;2023-12-20T05:42:53;9.30;;;6.75;;
48853;SDS011;34673;52.808;17.856;2023-12-20T05:45:20;11.48;;;7.50;;
48853;SDS011;34673;52.808;17.856;2023-12-20T05:47:47;9.98;;;6.45;;
48853;SDS011;34673;52.808;17.856;2023-12-20T05:50:15;10.60;;;6.93;;
48853;SDS011;34673;52.808;17.856;2023-12-20T05:52:42;12.70;;;8.43;;
48853;SDS011;34673;52.808;17.856;2023-12-20T05:55:09;13.38;;;6.68;;
48853;SDS011;34673;52.808;17.856;2023-12-20T05:57:36;14.93;;;9.43;;
48853;SDS011;34673;52.808;17.856;2023-12-20T06:00:03;9.27;;;6.82;;
48853;SDS011;34673;52.808;17.856;2023-12-20T06:02:37;10.88;;;7.03;;
48853;SDS011;34673;52.808;17.856;2023-12-20T06:05:04;7.68;;;5.78;;
48853;SDS011;34673;52.808;17.856;2023-12-20T06:07:32;6.72;;;5.30;;
48853;SDS011;34673;52.808;17.856;2023-12-20T06:09:59;8.73;;;5.80;;
48853;SDS011;34673;52.808;17.856;2023-12-20T06:12:26;7.47;;;5.60;;
48853;SDS011;34673;52.808;17.856;2023-12-20T06:14:55;7.45;;;5.20;;
48853;SDS011;34673;52.808;17.856;2023-12-20T06:17:24;8.23;;;5.70;;
48853;SDS011;34673;52.808;17.856;2023-12-20T06:19:51;9.18;;;5.68;;
48853;SDS011;34673;52.808;17.856;2023-12-20T06:22:18;7.15;;;5.20;;
48853;SDS011;34673;52.808;17.856;2023-12-20T06:24:46;6.90;;;4.63;;
48853;SDS011;34673;52.808;17.856;2023-12-20T06:27:13;7.60;;;5.13;;
48853;SDS011;34673;52.808;17.856;2023-12-20T06:29:40;9.18;;;4.50;;
48853;SDS011;34673;52.808;17.856;2023-12-20T06:32:08;10.38;;;5.28;;
48853;SDS011;34673;52.808;17.856;2023-12-20T06:34:36;10.50;;;4.80;;
48853;SDS011;34673;52.808;17.856;2023-12-20T06:37:04;8.85;;;5.00;;
48853;SDS011;34673;52.808;17.856;2023-12-20T06:39:32;6.47;;;4.28;;
48853;SDS011;34673;52.808;17.856;2023-12-20T06:42:00;10.30;;;5.85;;
48853;SDS011;34673;52.808;17.856;2023-12-20T06:44:28;6.18;;;4.53;;
48853;SDS011;34673;52.808;17.856;2023-12-20T06:46:55;6.82;;;4.55;;
48853;SDS011;34673;52.808;17.856;2023-12-20T06:49:22;9.00;;;5.20;;
48853;SDS011;34673;52.808;17.856;2023-12-20T06:51:49;8.82;;;5.40;;
48853;SDS011;34673;52.808;17.856;2023-12-20T06:54:17;9.95;;;5.68;;
48853;SDS011;34673;52.808;17.856;2023-12-20T06:56:44;6.22;;;4.50;;
48853;SDS011;34673;52.808;17.856;2023-12-20T06:59:11;7.15;;;4.28;;
48853;SDS011;34673;52.808;17.856;2023-12-20T07:01:39;8.70;;;5.22;;
48853;SDS011;34673;52.808;17.856;2023-12-20T07:04:06;11.18;;;5.07;;
48853;SDS011;34673;52.808;17.856;2023-12-20T07:06:33;7.65;;;4.47;;
48853;SDS011;34673;52.808;17.856;2023-12-20T07:09:00;8.35;;;5.18;;
48853;SDS011;34673;52.808;17.856;2023-12-20T07:11:28;10.20;;;5.10;;
48853;SDS011;34673;52.808;17.856;2023-12-20T07:13:55;10.75;;;5.38;;
48853;SDS011;34673;52.808;17.856;2023-12-20T07:16:22;6.60;;;4.47;;
48853;SDS011;34673;52.808;17.856;2023-12-20T07:18:49;7.40;;;4.28;;
48853;SDS011;34673;52.808;17.856;2023-12-20T07:21:17;7.80;;;6.80;;
48853;SDS011;34673;52.808;17.856;2023-12-20T07:23:44;9.10;;;5.43;;
48853;SDS011;34673;52.808;17.856;2023-12-20T07:26:11;8.65;;;5.00;;
48853;SDS011;34673;52.808;17.856;2023-12-20T07:28:38;6.70;;;4.50;;
48853;SDS011;34673;52.808;17.856;2023-12-20T07:31:06;6.82;;;4.72;;
48853;SDS011;34673;52.808;17.856;2023-12-20T07:33:33;10.43;;;4.50;;
48853;SDS011;34673;52.808;17.856;2023-12-20T07:36:05;7.20;;;4.63;;
48853;SDS011;34673;52.808;17.856;2023-12-20T07:38:33;9.50;;;5.03;;
48853;SDS011;34673;52.808;17.856;2023-12-20T07:41:00;10.98;;;5.90;;
48853;SDS011;34673;52.808;17.856;2023-12-20T07:43:27;10.75;;;5.88;;
48853;SDS011;34673;52.808;17.856;2023-12-20T07:45:55;9.23;;;6.22;;
48853;SDS011;34673;52.808;17.856;2023-12-20T07:48:22;9.82;;;5.47;;
48853;SDS011;34673;52.808;17.856;2023-12-20T07:50:49;11.20;;;6.63;;
48853;SDS011;34673;52.808;17.856;2023-12-20T07:53:16;9.57;;;5.55;;
48853;SDS011;34673;52.808;17.856;2023-12-20T07:55:43;11.65;;;4.90;;
48853;SDS011;34673;52.808;17.856;2023-12-20T07:58:11;9.07;;;5.22;;
48853;SDS011;34673;52.808;17.856;2023-12-20T08:00:38;14.23;;;6.13;;
48853;SDS011;34673;52.808;17.856;2023-12-20T08:03:06;10.10;;;5.70;;
48853;SDS011;34673;52.808;17.856;2023-12-20T08:05:33;10.25;;;5.78;;
48853;SDS011;34673;52.808;17.856;2023-12-20T08:08:00;12.82;;;6.63;;
48853;SDS011;34673;52.808;17.856;2023-12-20T08:10:28;13.40;;;7.47;;
48853;SDS011;34673;52.808;17.856;2023-12-20T08:12:56;13.40;;;7.10;;
48853;SDS011;34673;52.808;17.856;2023-12-20T08:15:24;15.40;;;8.05;;
48853;SDS011;34673;52.808;17.856;2023-12-20T08:17:51;17.38;;;9.82;;
48853;SDS011;34673;52.808;17.856;2023-12-20T08:20:19;14.68;;;8.85;;
48853;SDS011;34673;52.808;17.856;2023-12-20T08:22:55;17.50;;;8.05;;
48853;SDS011;34673;52.808;17.856;2023-12-20T08:25:22;13.80;;;7.95;;
48853;SDS011;34673;52.808;17.856;2023-12-20T08:27:49;13.93;;;7.82;;
48853;SDS011;34673;52.808;17.856;2023-12-20T08:30:17;12.85;;;7.30;;
48853;SDS011;34673;52.808;17.856;2023-12-20T08:35:15;8.50;;;5.68;;
48853;SDS011;34673;52.808;17.856;2023-12-20T08:37:42;9.57;;;5.70;;
48853;SDS011;34673;52.808;17.856;2023-12-20T08:40:09;9.48;;;5.50;;
48853;SDS011;34673;52.808;17.856;2023-12-20T08:42:37;10.73;;;5.35;;
48853;SDS011;34673;52.808;17.856;2023-12-20T08:45:04;8.32;;;4.90;;
48853;SDS011;34673;52.808;17.856;2023-12-20T08:47:32;10.48;;;4.85;;
48853;SDS011;34673;52.808;17.856;2023-12-20T08:49:59;11.63;;;4.88;;
48853;SDS011;34673;52.808;17.856;2023-12-20T08:52:27;11.10;;;5.18;;
48853;SDS011;34673;52.808;17.856;2023-12-20T08:54:56;9.68;;;4.22;;
48853;SDS011;34673;52.808;17.856;2023-12-20T08:57:23;9.40;;;4.65;;
48853;SDS011;34673;52.808;17.856;2023-12-20T08:59:50;8.05;;;4.18;;
48853;SDS011;34673;52.808;17.856;2023-12-20T09:02:18;9.05;;;4.82;;
48853;SDS011;34673;52.808;17.856;2023-12-20T09:04:45;9.27;;;5.15;;
48853;SDS011;34673;52.808;17.856;2023-12-20T09:09:52;11.45;;;4.72;;
48853;SDS011;34673;52.808;17.856;2023-12-20T09:12:20;8.57;;;4.72;;
48853;SDS011;34673;52.808;17.856;2023-12-20T09:14:47;8.85;;;3.67;;
48853;SDS011;34673;52.808;17.856;2023-12-20T09:17:16;7.95;;;4.30;;
48853;SDS011;34673;52.808;17.856;2023-12-20T09:19:44;8.25;;;3.78;;
48853;SDS011;34673;52.808;17.856;2023-12-20T09:22:12;8.68;;;3.75;;
48853;SDS011;34673;52.808;17.856;2023-12-20T09:24:39;7.63;;;3.78;;
48853;SDS011;34673;52.808;17.856;2023-12-20T09:27:06;7.88;;;3.53;;
48853;SDS011;34673;52.808;17.856;2023-12-20T09:29:34;7.65;;;3.80;;
48853;SDS011;34673;52.808;17.856;2023-12-20T09:32:01;8.38;;;3.50;;
48853;SDS011;34673;52.808;17.856;2023-12-20T09:34:28;6.95;;;4.20;;
48853;SDS011;34673;52.808;17.856;2023-12-20T09:36:56;10.32;;;3.60;;
48853;SDS011;34673;52.808;17.856;2023-12-20T09:39:24;8.32;;;4.32;;
48853;SDS011;34673;52.808;17.856;2023-12-20T09:42:00;8.23;;;4.13;;
48853;SDS011;34673;52.808;17.856;2023-12-20T09:44:29;9.15;;;4.63;;
48853;SDS011;34673;52.808;17.856;2023-12-20T09:46:59;8.93;;;4.47;;
48853;SDS011;34673;52.808;17.856;2023-12-20T09:49:30;8.45;;;4.70;;
48853;SDS011;34673;52.808;17.856;2023-12-20T09:51:57;8.50;;;4.75;;
48853;SDS011;34673;52.808;17.856;2023-12-20T09:54:28;10.32;;;4.53;;
48853;SDS011;34673;52.808;17.856;2023-12-20T09:56:57;10.02;;;4.93;;
48853;SDS011;34673;52.808;17.856;2023-12-20T09:59:24;8.00;;;5.25;;
48853;SDS011;34673;52.808;17.856;2023-12-20T10:01:51;9.20;;;4.53;;
48853;SDS011;34673;52.808;17.856;2023-12-20T10:04:24;9.48;;;4.82;;
48853;SDS011;34673;52.808;17.856;2023-12-20T10:06:56;12.10;;;5.38;;
48853;SDS011;34673;52.808;17.856;2023-12-20T10:09:24;8.45;;;4.57;;
48853;SDS011;34673;52.808;17.856;2023-12-20T10:11:53;6.97;;;4.18;;
48853;SDS011;34673;52.808;17.856;2023-12-20T10:14:21;7.75;;;4.82;;
48853;SDS011;34673;52.808;17.856;2023-12-20T10:16:50;6.35;;;4.10;;
48853;SDS011;34673;52.808;17.856;2023-12-20T10:19:17;13.05;;;3.40;;
48853;SDS011;34673;52.808;17.856;2023-12-20T10:21:45;9.45;;;3.55;;
48853;SDS011;34673;52.808;17.856;2023-12-20T10:24:18;7.82;;;3.30;;
48853;SDS011;34673;52.808;17.856;2023-12-20T10:26:46;6.72;;;2.40;;
48853;SDS011;34673;52.808;17.856;2023-12-20T10:29:13;8.32;;;2.80;;
48853;SDS011;34673;52.808;17.856;2023-12-20T10:31:40;5.35;;;2.30;;
48853;SDS011;34673;52.808;17.856;2023-12-20T10:34:09;9.75;;;2.70;;
48853;SDS011;34673;52.808;17.856;2023-12-20T10:36:36;10.27;;;2.63;;
48853;SDS011;34673;52.808;17.856;2023-12-20T10:39:04;7.80;;;2.67;;
48853;SDS011;34673;52.808;17.856;2023-12-20T10:41:35;14.98;;;5.68;;
48853;SDS011;34673;52.808;17.856;2023-12-20T10:44:08;6.97;;;2.30;;
48853;SDS011;34673;52.808;17.856;2023-12-20T10:46:37;8.77;;;3.03;;
48853;SDS011;34673;52.808;17.856;2023-12-20T10:49:06;9.47;;;2.57;;
48853;SDS011;34673;52.808;17.856;2023-12-20T10:51:35;8.50;;;2.50;;
48853;SDS011;34673;52.808;17.856;2023-12-20T10:54:04;5.72;;;2.25;;
48853;SDS011;34673;52.808;17.856;2023-12-20T10:56:32;5.53;;;2.00;;
48853;SDS011;34673;52.808;17.856;2023-12-20T10:59:02;11.38;;;2.42;;
48853;SDS011;34673;52.808;17.856;2023-12-20T11:01:32;11.40;;;2.50;;
48853;SDS011;34673;52.808;17.856;2023-12-20T11:04:02;7.40;;;1.98;;
48853;SDS011;34673;52.808;17.856;2023-12-20T11:06:39;9.48;;;2.10;;
48853;SDS011;34673;52.808;17.856;2023-12-20T11:09:14;7.18;;;2.20;;
48853;SDS011;34673;52.808;17.856;2023-12-20T11:14:53;7.75;;;2.70;;
48853;SDS011;34673;52.808;17.856;2023-12-20T11:17:24;10.45;;;2.53;;
48853;SDS011;34673;52.808;17.856;2023-12-20T11:22:25;11.57;;;2.63;;
48853;SDS011;34673;52.808;17.856;2023-12-20T11:24:53;8.25;;;2.47;;
48853;SDS011;34673;52.808;17.856;2023-12-20T11:27:20;13.20;;;3.03;;
48853;SDS011;34673;52.808;17.856;2023-12-20T11:29:51;8.18;;;2.40;;
48853;SDS011;34673;52.808;17.856;2023-12-20T11:34:56;10.25;;;2.40;;
48853;SDS011;34673;52.808;17.856;2023-12-20T11:37:31;12.13;;;2.38;;
48853;SDS011;34673;52.808;17.856;2023-12-20T11:40:04;9.43;;;2.05;;
48853;SDS011;34673;52.808;17.856;2023-12-20T11:42:40;7.60;;;2.08;;
48853;SDS011;34673;52.808;17.856;2023-12-20T11:45:09;9.88;;;2.50;;
48853;SDS011;34673;52.808;17.856;2023-12-20T11:47:37;11.50;;;2.88;;
48853;SDS011;34673;52.808;17.856;2023-12-20T11:50:05;8.88;;;2.60;;
48853;SDS011;34673;52.808;17.856;2023-12-20T11:52:33;11.93;;;2.53;;
48853;SDS011;34673;52.808;17.856;2023-12-20T11:55:00;9.38;;;2.22;;
48853;SDS011;34673;52.808;17.856;2023-12-20T11:57:27;11.25;;;2.20;;
48853;SDS011;34673;52.808;17.856;2023-12-20T11:59:55;10.48;;;2.78;;
48853;SDS011;34673;52.808;17.856;2023-12-20T12:02:23;8.75;;;2.50;;
48853;SDS011;34673;52.808;17.856;2023-12-20T12:04:50;10.48;;;2.75;;
48853;SDS011;34673;52.808;17.856;2023-12-20T12:07:18;10.82;;;2.58;;
48853;SDS011;34673;52.808;17.856;2023-12-20T12:09:46;13.35;;;3.00;;
48853;SDS011;34673;52.808;17.856;2023-12-20T12:12:13;7.40;;;3.15;;
48853;SDS011;34673;52.808;17.856;2023-12-20T12:14:41;10.85;;;2.20;;
48853;SDS011;34673;52.808;17.856;2023-12-20T12:17:11;8.88;;;2.50;;
48853;SDS011;34673;52.808;17.856;2023-12-20T12:19:40;8.77;;;2.13;;
48853;SDS011;34673;52.808;17.856;2023-12-20T12:22:15;10.95;;;2.47;;
48853;SDS011;34673;52.808;17.856;2023-12-20T12:24:43;10.65;;;2.60;;
48853;SDS011;34673;52.808;17.856;2023-12-20T12:27:12;10.00;;;2.47;;
48853;SDS011;34673;52.808;17.856;2023-12-20T12:30:00;10.60;;;2.20;;
48853;SDS011;34673;52.808;17.856;2023-12-20T12:32:29;9.27;;;2.00;;
48853;SDS011;34673;52.808;17.856;2023-12-20T12:34:56;7.20;;;1.90;;
48853;SDS011;34673;52.808;17.856;2023-12-20T12:37:23;8.20;;;2.25;;
48853;SDS011;34673;52.808;17.856;2023-12-20T12:39:53;10.23;;;2.13;;
48853;SDS011;34673;52.808;17.856;2023-12-20T12:42:21;7.90;;;2.50;;
48853;SDS011;34673;52.808;17.856;2023-12-20T12:44:52;5.45;;;1.88;;
48853;SDS011;34673;52.808;17.856;2023-12-20T12:47:19;6.13;;;1.90;;
48853;SDS011;34673;52.808;17.856;2023-12-20T12:49:46;4.82;;;1.67;;
48853;SDS011;34673;52.808;17.856;2023-12-20T12:52:14;5.43;;;1.85;;
48853;SDS011;34673;52.808;17.856;2023-12-20T12:54:43;8.38;;;2.25;;
48853;SDS011;34673;52.808;17.856;2023-12-20T12:57:11;6.22;;;2.03;;
48853;SDS011;34673;52.808;17.856;2023-12-20T12:59:40;10.00;;;2.40;;
48853;SDS011;34673;52.808;17.856;2023-12-20T13:02:08;8.43;;;2.50;;
48853;SDS011;34673;52.808;17.856;2023-12-20T13:04:35;5.88;;;1.80;;
48853;SDS011;34673;52.808;17.856;2023-12-20T13:07:03;7.25;;;2.15;;
48853;SDS011;34673;52.808;17.856;2023-12-20T13:09:31;7.22;;;2.67;;
48853;SDS011;34673;52.808;17.856;2023-12-20T13:11:58;9.13;;;2.80;;
48853;SDS011;34673;52.808;17.856;2023-12-20T13:14:26;8.55;;;2.40;;
48853;SDS011;34673;52.808;17.856;2023-12-20T13:16:53;8.85;;;2.95;;
48853;SDS011;34673;52.808;17.856;2023-12-20T13:19:20;8.82;;;2.72;;
48853;SDS011;34673;52.808;17.856;2023-12-20T13:21:48;12.18;;;2.83;;
48853;SDS011;34673;52.808;17.856;2023-12-20T13:24:15;10.07;;;3.13;;
48853;SDS011;34673;52.808;17.856;2023-12-20T13:26:42;8.93;;;3.10;;
48853;SDS011;34673;52.808;17.856;2023-12-20T13:29:09;9.85;;;2.35;;
48853;SDS011;34673;52.808;17.856;2023-12-20T13:31:37;7.57;;;2.80;;
48853;SDS011;34673;52.808;17.856;2023-12-20T13:34:06;11.20;;;2.35;;
48853;SDS011;34673;52.808;17.856;2023-12-20T13:36:34;11.38;;;3.05;;
48853;SDS011;34673;52.808;17.856;2023-12-20T13:39:03;9.35;;;2.60;;
48853;SDS011;34673;52.808;17.856;2023-12-20T13:41:31;10.18;;;2.58;;
48853;SDS011;34673;52.808;17.856;2023-12-20T13:43:59;13.80;;;2.72;;
48853;SDS011;34673;52.808;17.856;2023-12-20T13:46:26;11.98;;;2.92;;
48853;SDS011;34673;52.808;17.856;2023-12-20T13:48:54;8.77;;;2.40;;
48853;SDS011;34673;52.808;17.856;2023-12-20T13:51:22;10.30;;;2.95;;
48853;SDS011;34673;52.808;17.856;2023-12-20T13:53:49;11.05;;;3.03;;
48853;SDS011;34673;52.808;17.856;2023-12-20T13:56:16;11.02;;;3.75;;
48853;SDS011;34673;52.808;17.856;2023-12-20T13:58:43;13.07;;;2.95;;
48853;SDS011;34673;52.808;17.856;2023-12-20T14:01:13;13.33;;;3.20;;
48853;SDS011;34673;52.808;17.856;2023-12-20T14:03:40;11.38;;;3.15;;
48853;SDS011;34673;52.808;17.856;2023-12-20T14:06:08;11.13;;;3.20;;
48853;SDS011;34673;52.808;17.856;2023-12-20T14:08:35;10.32;;;3.92;;
48853;SDS011;34673;52.808;17.856;2023-12-20T14:11:02;11.70;;;3.33;;
48853;SDS011;34673;52.808;17.856;2023-12-20T14:13:30;16.50;;;3.88;;
48853;SDS011;34673;52.808;17.856;2023-12-20T14:15:58;11.95;;;2.92;;
48853;SDS011;34673;52.808;17.856;2023-12-20T14:18:27;14.88;;;3.60;;
48853;SDS011;34673;52.808;17.856;2023-12-20T14:20:54;12.57;;;3.60;;
48853;SDS011;34673;52.808;17.856;2023-12-20T14:23:21;14.60;;;3.58;;
48853;SDS011;34673;52.808;17.856;2023-12-20T14:25:49;11.52;;;3.15;;
48853;SDS011;34673;52.808;17.856;2023-12-20T14:28:19;10.50;;;3.50;;
48853;SDS011;34673;52.808;17.856;2023-12-20T14:30:46;14.90;;;4.50;;
48853;SDS011;34673;52.808;17.856;2023-12-20T14:33:13;15.70;;;4.20;;
48853;SDS011;34673;52.808;17.856;2023-12-20T14:35:41;13.55;;;3.58;;
48853;SDS011;34673;52.808;17.856;2023-12-20T14:38:11;14.88;;;2.97;;
48853;SDS011;34673;52.808;17.856;2023-12-20T14:43:08;11.05;;;3.47;;
48853;SDS011;34673;52.808;17.856;2023-12-20T14:45:36;9.35;;;3.22;;